Northwood, Maryland
Current Conditions -  °F | °C
As of 10:24 PM on Monday 26 Jan 2015 (Local Time) from KMTN Reporting Station
Light Snow Light Snow  
Wind Chill: 23°   Ceiling: Unl
Heat Index: 30°   Visibility: 10mi
Dew Point: 28°   Wind: 7mph
Humidity: 93%   Direction: 310°NW
Pressure: 29.75"   Gusts: NA
Location:  39.3649°N, 76.5875°W
Report Text: KMTN 270324Z AUTO 31006KT 10SM -SN SCT009 SCT012 SCT019 M01/M02 A2975 RMK AO2
Loading
Personal Weather Stations






























Interactive Weather Map New forecast layout! Learn more

10-Day Weather Forecast

Advertisements
Track Severe Weather on mobile